Woodlawn, Tennessee
Current Conditions -  °F | °C
As of 10:52 PM on Saturday 22 Nov 2014 (Local Time) from KCKV Reporting Station
Clear Clear  
Wind Chill: 12°   Ceiling: Unl
Heat Index: 12°   Visibility: 10mi
Dew Point:   Wind: 9mph
Humidity: 59%   Direction: 160°SSE
Pressure: 30.03"   Gusts: NA
Location:  36.54°N, 87.51°W
Report Text: KCKV 230452Z AUTO 16008KT 10SM CLR 12/04 A3003 RMK AO2 SLP166 T01220044 $
Loading
Personal Weather Stations






























Interactive Weather Map New forecast layout! Learn more

10-Day Weather Forecast

Advertisements
Track Severe Weather on mobile